createdAt,value
2019-02-08T00:01:27.957Z,5.01
2019-02-08T00:03:57.509Z,5.00
2019-02-08T00:06:27.494Z,4.84
2019-02-08T00:08:57.013Z,4.80
2019-02-08T00:11:26.171Z,4.76
2019-02-08T00:13:55.421Z,4.77
2019-02-08T00:16:25.272Z,4.83
2019-02-08T00:18:54.438Z,4.81
2019-02-08T00:21:23.691Z,4.72
2019-02-08T00:23:53.171Z,4.69
2019-02-08T00:26:22.494Z,4.58
2019-02-08T00:28:51.990Z,4.76
2019-02-08T00:31:21.507Z,4.70
2019-02-08T00:33:50.694Z,4.80
2019-02-08T00:36:20.072Z,4.77
2019-02-08T00:38:49.593Z,4.73
2019-02-08T00:41:19.103Z,4.84
2019-02-08T00:43:48.286Z,4.87
2019-02-08T00:46:17.757Z,4.82
2019-02-08T00:48:47.102Z,4.81
2019-02-08T00:51:16.705Z,4.78
2019-02-08T00:53:45.845Z,4.73
2019-02-08T00:56:15.141Z,4.73
2019-02-08T00:58:44.891Z,4.74
2019-02-08T01:01:15.887Z,4.79
2019-02-08T01:03:45.806Z,4.80
2019-02-08T01:06:15.288Z,4.70
2019-02-08T01:08:44.553Z,4.77
2019-02-08T01:11:13.731Z,4.85
2019-02-08T01:13:43.309Z,4.89
2019-02-08T01:16:12.824Z,4.98
2019-02-08T01:18:42.323Z,5.11
2019-02-08T01:21:11.834Z,5.19
2019-02-08T01:23:42.311Z,5.31
2019-02-08T01:26:11.506Z,5.33
2019-02-08T01:28:42.494Z,5.33
2019-02-08T01:31:11.700Z,5.45
2019-02-08T01:33:41.216Z,5.39
2019-02-08T01:36:10.376Z,5.45
2019-02-08T01:38:39.921Z,5.59
2019-02-08T01:41:09.094Z,5.52
2019-02-08T01:43:38.826Z,5.45
2019-02-08T01:46:08.096Z,5.44
2019-02-08T01:48:37.924Z,5.49
2019-02-08T01:51:08.538Z,5.39
2019-02-08T01:53:37.853Z,5.48
2019-02-08T01:56:07.031Z,5.56
2019-02-08T01:58:36.209Z,5.60
2019-02-08T02:01:06.985Z,5.66
2019-02-08T02:03:36.162Z,5.71
2019-02-08T02:06:05.544Z,5.78
2019-02-08T02:08:34.789Z,5.80
2019-02-08T02:11:03.930Z,5.83
2019-02-08T02:13:33.509Z,5.72
2019-02-08T02:16:04.095Z,5.58
2019-02-08T02:18:33.367Z,5.52
2019-02-08T02:21:02.597Z,5.38
2019-02-08T02:23:32.133Z,5.30
2019-02-08T02:26:01.639Z,5.25
2019-02-08T02:28:30.789Z,5.36
2019-02-08T02:31:01.517Z,5.43
2019-02-08T02:33:30.954Z,5.54
2019-02-08T02:36:00.517Z,5.55
2019-02-08T02:38:30.397Z,5.56
2019-02-08T02:40:59.580Z,5.62
2019-02-08T02:43:28.720Z,5.68
2019-02-08T02:45:57.938Z,5.74
2019-02-08T02:48:27.535Z,5.77
2019-02-08T02:50:57.015Z,5.77
2019-02-08T02:53:26.420Z,5.81
2019-02-08T02:55:56.034Z,5.84
2019-02-08T02:58:25.525Z,5.87
2019-02-08T03:00:55.037Z,5.90
2019-02-08T03:03:24.299Z,5.90
2019-02-08T03:05:53.855Z,5.90
2019-02-08T03:08:22.979Z,5.92
2019-02-08T03:10:52.497Z,6.03
2019-02-08T03:13:22.367Z,5.92
2019-02-08T03:15:51.552Z,5.89
2019-02-08T03:18:20.709Z,5.93
2019-02-08T03:20:51.903Z,5.96
2019-02-08T03:23:21.062Z,6.02
2019-02-08T03:25:50.233Z,6.08
2019-02-08T03:28:19.838Z,6.11
2019-02-08T03:30:51.658Z,6.13
2019-02-08T03:33:21.251Z,6.09
2019-02-08T03:35:50.761Z,6.05
2019-02-08T03:38:19.972Z,6.10
2019-02-08T03:40:50.238Z,6.00
2019-02-08T03:43:19.450Z,6.05
2019-02-08T03:45:50.768Z,6.12
2019-02-08T03:48:20.293Z,6.04
2019-02-08T03:50:49.918Z,6.12
2019-02-08T03:53:19.342Z,6.09
2019-02-08T03:55:57.764Z,6.09
2019-02-08T03:58:20.087Z,6.03
2019-02-08T04:00:57.135Z,6.06
2019-02-08T04:03:26.289Z,6.02
2019-02-08T04:05:55.822Z,5.91
2019-02-08T04:08:25.027Z,5.99
2019-02-08T04:10:54.511Z,6.08
2019-02-08T04:13:23.736Z,6.04
2019-02-08T04:15:52.917Z,6.05
2019-02-08T04:18:22.394Z,5.98
2019-02-08T04:20:51.603Z,5.99
2019-02-08T04:23:20.756Z,5.96
2019-02-08T04:25:49.910Z,5.90
2019-02-08T04:28:19.767Z,5.91
2019-02-08T04:30:49.514Z,5.82
2019-02-08T04:33:18.718Z,5.86
2019-02-08T04:35:47.941Z,5.83
2019-02-08T04:38:18.461Z,5.78
2019-02-08T04:40:47.955Z,5.77
2019-02-08T04:43:17.150Z,5.74
2019-02-08T04:45:46.330Z,5.73
2019-02-08T04:48:15.534Z,5.71
2019-02-08T04:50:44.790Z,5.66
2019-02-08T04:53:13.948Z,5.68
2019-02-08T04:55:44.057Z,5.70
2019-02-08T04:58:13.427Z,5.58
2019-02-08T05:00:42.616Z,5.56
2019-02-08T05:03:11.784Z,5.61
2019-02-08T05:05:41.085Z,5.55
2019-02-08T05:08:10.229Z,5.48
2019-02-08T05:10:39.372Z,5.46
2019-02-08T05:13:08.599Z,5.45
2019-02-08T05:15:38.121Z,5.39
2019-02-08T05:18:07.434Z,5.33
2019-02-08T05:20:36.576Z,5.36
2019-02-08T05:23:06.134Z,5.33
2019-02-08T05:25:35.627Z,5.25
2019-02-08T05:28:05.321Z,5.28
2019-02-08T05:30:35.779Z,5.37
2019-02-08T05:33:06.013Z,5.29
2019-02-08T05:35:36.018Z,5.32
2019-02-08T05:38:06.778Z,5.35
2019-02-08T05:40:36.331Z,5.29
2019-02-08T05:43:08.362Z,5.36
2019-02-08T05:45:37.496Z,5.30
2019-02-08T05:48:06.797Z,5.30
2019-02-08T05:50:36.031Z,5.33
2019-02-08T05:53:05.701Z,5.28
2019-02-08T05:55:35.327Z,5.34
2019-02-08T05:58:05.060Z,5.31
2019-02-08T06:00:42.334Z,5.31
2019-02-08T06:03:11.802Z,5.37
2019-02-08T06:05:41.323Z,5.39
2019-02-08T06:08:10.661Z,5.39
2019-02-08T06:10:40.145Z,5.48
2019-02-08T06:15:44.858Z,5.53
2019-02-08T06:18:14.251Z,5.60
2019-02-08T06:20:43.629Z,5.55
2019-02-08T06:23:12.756Z,5.63
2019-02-08T06:25:41.959Z,5.66
2019-02-08T06:28:11.181Z,5.64
2019-02-08T06:30:40.318Z,5.65
2019-02-08T06:33:09.550Z,5.68
2019-02-08T06:35:38.719Z,5.71
2019-02-08T06:38:08.486Z,5.71
2019-02-08T06:40:40.806Z,5.77
2019-02-08T06:43:10.147Z,5.74
2019-02-08T06:45:39.420Z,5.75
2019-02-08T06:48:09.932Z,5.78
2019-02-08T06:50:39.108Z,5.82
2019-02-08T06:53:10.115Z,5.89
2019-02-08T06:55:39.301Z,5.94
2019-02-08T06:58:30.045Z,5.96
2019-02-08T07:01:17.289Z,6.00
2019-02-08T07:04:04.100Z,5.94
2019-02-08T07:07:00.787Z,6.01
2019-02-08T07:10:04.153Z,6.08
2019-02-08T07:12:55.558Z,6.08
2019-02-08T07:16:05.294Z,6.11
2019-02-08T07:18:53.834Z,6.01
2019-02-08T07:21:47.764Z,6.03
2019-02-08T07:24:36.175Z,6.06
2019-02-08T07:27:20.554Z,6.06
2019-02-08T07:30:14.512Z,6.04
2019-02-08T07:33:04.155Z,6.05
2019-02-08T07:36:01.602Z,6.06
2019-02-08T07:39:01.930Z,6.10
2019-02-08T07:41:56.494Z,6.10
2019-02-08T07:44:34.001Z,6.10
2019-02-08T07:47:22.143Z,6.10
2019-02-08T07:50:03.454Z,6.14
2019-02-08T07:52:51.583Z,6.29
2019-02-08T07:55:49.589Z,6.28
2019-02-08T07:58:47.175Z,6.28
2019-02-08T08:01:30.824Z,6.33
2019-02-08T08:04:31.635Z,6.36
2019-02-08T08:07:26.046Z,6.37
2019-02-08T08:10:01.616Z,6.33
2019-02-08T08:12:55.033Z,6.39
2019-02-08T08:15:44.267Z,6.40
2019-02-08T08:18:45.089Z,6.41
2019-02-08T08:21:32.347Z,6.42
2019-02-08T08:24:11.310Z,6.52
2019-02-08T08:27:03.329Z,6.51
2019-02-08T08:29:40.474Z,6.54
2019-02-08T08:32:26.577Z,6.58
2019-02-08T08:35:30.033Z,6.57
2019-02-08T08:38:30.728Z,6.61
2019-02-08T08:41:48.814Z,6.62
2019-02-08T08:45:07.137Z,6.64
2019-02-08T08:48:12.515Z,6.61
2019-02-08T08:51:28.087Z,6.58
2019-02-08T08:54:56.453Z,6.56
2019-02-08T08:58:00.463Z,6.72
2019-02-08T09:01:22.945Z,6.75
2019-02-08T09:04:29.017Z,6.70
2019-02-08T09:07:39.164Z,6.70
2019-02-08T09:11:11.766Z,6.76
2019-02-08T09:14:33.916Z,6.81
2019-02-08T09:18:03.955Z,6.91
2019-02-08T09:21:29.812Z,6.89
2019-02-08T09:24:28.071Z,6.98
2019-02-08T09:27:25.629Z,7.01
2019-02-08T09:30:10.913Z,7.04
2019-02-08T09:33:16.906Z,6.91
2019-02-08T09:36:24.049Z,6.88
2019-02-08T09:39:45.380Z,6.92
2019-02-08T09:42:52.620Z,7.03
2019-02-08T09:45:55.429Z,7.05
2019-02-08T09:48:55.248Z,7.10
2019-02-08T09:52:13.644Z,7.16
2019-02-08T09:55:30.079Z,7.13
2019-02-08T09:58:31.031Z,7.12
2019-02-08T10:01:35.585Z,7.14
2019-02-08T10:04:49.949Z,7.14
2019-02-08T10:08:08.524Z,7.23
2019-02-08T10:11:17.793Z,7.27
2019-02-08T10:14:33.011Z,7.30
2019-02-08T10:17:45.074Z,7.31
2019-02-08T10:20:50.326Z,7.31
2019-02-08T10:23:40.098Z,7.34
2019-02-08T10:26:44.861Z,7.46
2019-02-08T10:29:52.894Z,7.49
2019-02-08T10:33:11.616Z,7.54
2019-02-08T10:36:17.748Z,7.56
2019-02-08T10:39:15.045Z,7.55
2019-02-08T10:42:30.097Z,7.59
2019-02-08T10:45:35.549Z,7.64
2019-02-08T10:48:37.248Z,7.74
2019-02-08T10:51:43.989Z,7.73
2019-02-08T10:54:50.754Z,7.69
2019-02-08T10:58:15.891Z,7.80
2019-02-08T11:01:41.653Z,7.79
2019-02-08T11:04:35.539Z,7.77
2019-02-08T11:07:45.069Z,7.82
2019-02-08T11:10:31.778Z,7.88
2019-02-08T11:13:56.982Z,7.98
2019-02-08T11:17:03.311Z,7.93
2019-02-08T11:19:30.845Z,7.96
2019-02-08T11:22:00.347Z,7.91
2019-02-08T11:24:29.559Z,7.87
2019-02-08T11:27:00.398Z,7.95
2019-02-08T11:29:30.091Z,7.99
2019-02-08T11:31:59.266Z,8.08
2019-02-08T11:34:28.450Z,8.02
2019-02-08T11:36:57.686Z,8.04
2019-02-08T11:39:27.280Z,8.14
2019-02-08T11:41:56.488Z,8.18
2019-02-08T11:44:26.085Z,8.24
2019-02-08T11:46:55.479Z,8.20
2019-02-08T11:49:24.639Z,8.29
2019-02-08T11:51:53.798Z,8.33
2019-02-08T11:54:22.991Z,8.22
2019-02-08T11:56:52.528Z,8.28
2019-02-08T11:59:21.994Z,8.33
2019-02-08T12:01:52.254Z,8.25
2019-02-08T12:04:21.629Z,8.32
2019-02-08T12:06:51.949Z,8.46
2019-02-08T12:09:21.089Z,8.48
2019-02-08T12:11:50.274Z,8.54
2019-02-08T12:14:19.478Z,8.45
2019-02-08T12:16:48.819Z,8.45
2019-02-08T12:19:17.980Z,8.46
2019-02-08T12:21:47.135Z,8.49
2019-02-08T12:24:16.304Z,8.51
2019-02-08T12:26:45.470Z,8.40
2019-02-08T12:29:14.971Z,8.47
2019-02-08T12:31:44.220Z,8.54
2019-02-08T12:34:13.366Z,8.44
2019-02-08T12:36:42.721Z,8.48
2019-02-08T12:39:12.487Z,8.56
2019-02-08T12:41:42.780Z,8.50
2019-02-08T12:44:12.770Z,8.55
2019-02-08T12:46:41.925Z,8.53
2019-02-08T12:49:11.110Z,8.70
2019-02-08T12:51:40.283Z,8.58
2019-02-08T12:54:09.762Z,8.59
2019-02-08T12:56:45.331Z,8.57
2019-02-08T12:59:09.844Z,8.69
2019-02-08T13:01:39.654Z,8.65
2019-02-08T13:04:08.989Z,8.62
2019-02-08T13:06:38.245Z,8.56
2019-02-08T13:09:11.784Z,8.65
2019-02-08T13:11:42.393Z,8.54
2019-02-08T13:14:11.602Z,8.58
2019-02-08T13:16:41.093Z,8.59
2019-02-08T13:19:11.368Z,8.66
2019-02-08T13:21:41.033Z,8.63
2019-02-08T13:24:10.417Z,8.66
2019-02-08T13:26:40.710Z,8.63
2019-02-08T13:29:10.262Z,8.66
2019-02-08T13:31:39.478Z,8.59
2019-02-08T13:34:08.636Z,8.66
2019-02-08T13:36:37.846Z,8.85
2019-02-08T13:39:09.273Z,8.81
2019-02-08T13:41:38.545Z,8.80
2019-02-08T13:44:08.040Z,8.78
2019-02-08T13:46:37.657Z,8.85
2019-02-08T13:49:06.855Z,8.79
2019-02-08T13:51:35.997Z,8.80
2019-02-08T13:54:06.417Z,8.70
2019-02-08T13:56:35.969Z,8.85
2019-02-08T13:59:06.210Z,8.75
2019-02-08T14:01:35.402Z,8.86
2019-02-08T14:04:05.337Z,8.90
2019-02-08T14:06:34.517Z,8.90
2019-02-08T14:09:05.337Z,8.79
2019-02-08T14:11:34.946Z,8.83
2019-02-08T14:14:04.116Z,8.80
2019-02-08T14:16:33.364Z,8.84
2019-02-08T14:19:04.177Z,8.89
2019-02-08T14:21:33.688Z,8.87
2019-02-08T14:24:02.828Z,8.86
2019-02-08T14:26:32.009Z,8.87
2019-02-08T14:29:01.872Z,8.87
2019-02-08T14:31:31.158Z,8.91
2019-02-08T14:34:00.681Z,8.99
2019-02-08T14:36:30.312Z,8.87
2019-02-08T14:38:59.825Z,8.88
2019-02-08T14:41:29.037Z,8.93
2019-02-08T14:43:58.574Z,8.92
2019-02-08T14:46:27.714Z,8.92
2019-02-08T14:48:58.502Z,8.87
2019-02-08T14:51:28.168Z,8.92
2019-02-08T14:53:57.734Z,8.91
2019-02-08T14:56:26.911Z,8.90
2019-02-08T14:58:56.076Z,8.92
2019-02-08T15:01:25.580Z,8.89
2019-02-08T15:03:54.890Z,8.86
2019-02-08T15:06:24.397Z,8.94
2019-02-08T15:08:53.580Z,8.89
2019-02-08T15:11:23.094Z,8.85
2019-02-08T15:13:54.118Z,8.84
2019-02-08T15:16:23.537Z,8.83
2019-02-08T15:18:52.684Z,8.83
2019-02-08T15:21:22.371Z,8.87
2019-02-08T15:23:51.675Z,8.86
2019-02-08T15:26:20.817Z,8.79
2019-02-08T15:28:50.158Z,8.88
2019-02-08T15:31:19.497Z,8.83
2019-02-08T15:33:48.717Z,8.79
2019-02-08T15:36:18.257Z,8.79
2019-02-08T15:38:47.791Z,8.76
2019-02-08T15:41:17.065Z,8.83
2019-02-08T15:43:46.266Z,8.81
2019-02-08T15:46:16.966Z,8.79
2019-02-08T15:48:46.605Z,8.81
2019-02-08T15:51:15.798Z,8.77
2019-02-08T15:53:44.991Z,8.74
2019-02-08T15:56:16.068Z,8.75
2019-02-08T15:58:45.557Z,8.78
2019-02-08T16:01:14.950Z,8.79
2019-02-08T16:03:44.464Z,8.75
2019-02-08T16:06:14.303Z,8.75
2019-02-08T16:08:43.530Z,8.75
2019-02-08T16:11:13.695Z,8.74
2019-02-08T16:13:43.002Z,8.71
2019-02-08T16:16:13.885Z,8.70
2019-02-08T16:18:43.064Z,8.69
2019-02-08T16:21:12.335Z,8.73
2019-02-08T16:23:41.850Z,8.70
2019-02-08T16:26:11.120Z,8.73
2019-02-08T16:28:40.316Z,8.73
2019-02-08T16:31:09.480Z,8.70
2019-02-08T16:33:40.077Z,8.71
2019-02-08T16:36:09.269Z,8.73
2019-02-08T16:38:38.783Z,8.71
2019-02-08T16:41:08.290Z,8.73
2019-02-08T16:43:37.533Z,8.75
2019-02-08T16:46:06.746Z,8.77
2019-02-08T16:48:37.315Z,8.77
2019-02-08T16:51:06.891Z,8.79
2019-02-08T16:53:36.392Z,8.77
2019-02-08T16:56:05.874Z,8.76
2019-02-08T16:58:35.032Z,8.79
2019-02-08T17:01:04.284Z,8.79
2019-02-08T17:03:33.469Z,8.81
2019-02-08T17:06:02.659Z,8.86
2019-02-08T17:08:31.808Z,8.84
2019-02-08T17:11:01.002Z,8.81
2019-02-08T17:13:31.176Z,8.85
2019-02-08T17:16:00.419Z,8.85
2019-02-08T17:18:29.556Z,8.81
2019-02-08T17:20:59.265Z,8.83
2019-02-08T17:23:29.358Z,8.87
2019-02-08T17:25:58.539Z,8.88
2019-02-08T17:28:27.785Z,8.87
2019-02-08T17:30:56.965Z,8.87
2019-02-08T17:33:26.524Z,8.89
2019-02-08T17:35:55.734Z,8.86
2019-02-08T17:38:24.957Z,8.85
2019-02-08T17:40:54.133Z,8.86
2019-02-08T17:43:23.695Z,8.92
2019-02-08T17:45:54.300Z,8.89
2019-02-08T17:48:23.963Z,8.87
2019-02-08T17:50:53.139Z,8.94
2019-02-08T17:53:22.475Z,8.98
2019-02-08T17:55:52.014Z,8.92
2019-02-08T17:58:22.028Z,8.92
2019-02-08T18:00:59.146Z,8.92
2019-02-08T18:03:28.782Z,8.92
2019-02-08T18:05:58.488Z,8.94
2019-02-08T18:08:27.663Z,9.00
2019-02-08T18:10:57.256Z,9.07
2019-02-08T18:13:26.378Z,9.05
2019-02-08T18:15:56.685Z,9.01
2019-02-08T18:18:27.256Z,9.01
2019-02-08T18:21:02.970Z,9.04
2019-02-08T18:23:32.694Z,8.98
2019-02-08T18:26:01.826Z,8.96
2019-02-08T18:28:31.042Z,8.98
2019-02-08T18:31:00.461Z,8.98
2019-02-08T18:33:31.467Z,9.00
2019-02-08T18:36:00.637Z,9.01
2019-02-08T18:38:29.787Z,9.01
2019-02-08T18:40:59.473Z,9.00
2019-02-08T18:43:28.622Z,8.98
2019-02-08T18:45:57.796Z,8.98
2019-02-08T18:48:27.516Z,9.02
2019-02-08T18:50:56.701Z,8.99
2019-02-08T18:53:25.881Z,9.02
2019-02-08T18:55:55.350Z,9.01
2019-02-08T18:58:24.847Z,9.01
2019-02-08T19:00:54.194Z,9.01
2019-02-08T19:03:25.034Z,9.00
2019-02-08T19:05:54.198Z,9.04
2019-02-08T19:08:23.351Z,9.01
2019-02-08T19:10:52.576Z,9.07
2019-02-08T19:13:21.820Z,9.01
2019-02-08T19:15:51.501Z,9.03
2019-02-08T19:18:21.040Z,9.04
2019-02-08T19:20:50.194Z,9.05
2019-02-08T19:23:19.379Z,9.05
2019-02-08T19:25:48.915Z,9.08
2019-02-08T19:28:18.362Z,9.09
2019-02-08T19:30:47.668Z,9.06
2019-02-08T19:33:17.770Z,9.08
2019-02-08T19:35:47.586Z,9.07
2019-02-08T19:38:18.827Z,9.11
2019-02-08T19:40:48.238Z,9.10
2019-02-08T19:43:17.847Z,9.07
2019-02-08T19:45:48.268Z,9.05
2019-02-08T19:48:18.500Z,9.10
2019-02-08T19:50:47.985Z,9.09
2019-02-08T19:53:17.746Z,9.12
2019-02-08T19:55:48.571Z,9.19
2019-02-08T19:58:17.961Z,9.16
2019-02-08T20:00:47.903Z,9.18
2019-02-08T20:03:17.228Z,9.19
2019-02-08T20:05:46.976Z,9.18
2019-02-08T20:08:16.806Z,9.12
2019-02-08T20:10:48.563Z,9.16
2019-02-08T20:13:17.814Z,9.16
2019-02-08T20:15:47.238Z,9.19
2019-02-08T20:18:17.163Z,9.19
2019-02-08T20:20:46.619Z,9.21
2019-02-08T20:23:16.525Z,9.18
2019-02-08T20:25:47.472Z,9.20
2019-02-08T20:28:17.332Z,9.25
2019-02-08T20:30:47.146Z,9.22
2019-02-08T20:33:17.430Z,9.27
2019-02-08T20:35:46.665Z,9.24
2019-02-08T20:38:15.811Z,9.24
2019-02-08T20:40:47.899Z,9.24
2019-02-08T20:43:17.601Z,9.23
2019-02-08T20:45:46.776Z,9.25
2019-02-08T20:48:18.811Z,9.24
2019-02-08T20:50:48.485Z,9.28
2019-02-08T20:53:18.367Z,9.28
2019-02-08T20:55:47.969Z,9.24
2019-02-08T20:58:17.580Z,9.13
2019-02-08T21:00:49.744Z,9.06
2019-02-08T21:03:19.851Z,9.04
2019-02-08T21:05:49.830Z,8.92
2019-02-08T21:08:20.662Z,8.87
2019-02-08T21:10:50.448Z,8.77
2019-02-08T21:13:19.704Z,8.68
2019-02-08T21:15:49.210Z,8.56
2019-02-08T21:18:19.275Z,8.43
2019-02-08T21:20:49.309Z,8.37
2019-02-08T21:23:18.808Z,8.29
2019-02-08T21:25:52.192Z,8.21
2019-02-08T21:28:19.730Z,8.23
2019-02-08T21:30:49.191Z,8.20
2019-02-08T21:33:19.465Z,8.21
2019-02-08T21:35:50.295Z,8.25
2019-02-08T21:38:19.748Z,8.14
2019-02-08T21:40:49.312Z,8.13
2019-02-08T21:43:18.720Z,8.09
2019-02-08T21:45:48.271Z,8.11
2019-02-08T21:48:17.441Z,8.12
2019-02-08T21:50:46.628Z,8.16
2019-02-08T21:53:16.108Z,8.08
2019-02-08T21:55:45.745Z,8.09
2019-02-08T21:58:15.524Z,8.04
2019-02-08T22:01:05.413Z,8.07
2019-02-08T22:03:34.723Z,8.10
2019-02-08T22:06:07.322Z,8.12
2019-02-08T22:08:36.545Z,8.09
2019-02-08T22:11:05.743Z,8.05
2019-02-08T22:13:34.887Z,8.06
2019-02-08T22:16:04.303Z,8.08
2019-02-08T22:18:33.448Z,8.06
2019-02-08T22:21:03.261Z,8.04
2019-02-08T22:23:32.765Z,8.06
2019-02-08T22:26:02.031Z,8.05
2019-02-08T22:28:31.426Z,8.04
2019-02-08T22:31:00.938Z,8.04
2019-02-08T22:33:30.067Z,8.01
2019-02-08T22:35:59.833Z,7.99
2019-02-08T22:38:29.002Z,7.97
2019-02-08T22:40:58.142Z,7.92
2019-02-08T22:43:27.624Z,7.94
2019-02-08T22:45:58.782Z,7.97
2019-02-08T22:48:28.286Z,8.00
2019-02-08T22:50:57.440Z,8.03
2019-02-08T22:53:26.636Z,8.02
2019-02-08T22:55:55.800Z,8.02
2019-02-08T22:58:25.487Z,7.99
2019-02-08T23:01:35.665Z,8.05
2019-02-08T23:04:06.740Z,8.31
2019-02-08T23:06:39.508Z,8.43
2019-02-08T23:09:20.135Z,8.43
2019-02-08T23:11:49.522Z,8.12
2019-02-08T23:14:18.949Z,8.09
2019-02-08T23:16:48.917Z,8.07
2019-02-08T23:19:18.131Z,8.04
2019-02-08T23:21:47.700Z,8.07
2019-02-08T23:24:16.952Z,8.04
2019-02-08T23:26:47.509Z,7.99
2019-02-08T23:29:16.649Z,7.94
2019-02-08T23:31:45.816Z,7.97
2019-02-08T23:34:15.080Z,7.96
2019-02-08T23:36:44.286Z,7.95
2019-02-08T23:39:14.535Z,7.96
2019-02-08T23:41:43.669Z,7.92
2019-02-08T23:44:14.163Z,7.96
2019-02-08T23:46:45.019Z,7.91
2019-02-08T23:49:14.320Z,7.97
2019-02-08T23:51:44.059Z,7.93
2019-02-08T23:54:13.195Z,7.90
2019-02-08T23:56:42.378Z,7.84
2019-02-08T23:59:11.813Z,7.86
